Time;durP1;ratioP1;P1;durP2;ratioP2;P2;SDS_P1;SDS_P2;PMS_P1;PMS_P2;Temp;Humidity;BMP_temperature;BMP_pressure;BME280_temperature;BME280_humidity;BME280_pressure;Samples;Min_cycle;Max_cycle;Signal;HPM_P1;HPM_P2
2022/02/02 00:01:16;;;;;;;2.13;1.27;;;23.30;54.10;;;;;;6178051;23;20454;-86
2022/02/02 00:03:54;;;;;;;1.47;1.03;;;23.40;54.20;;;;;;6177210;23;20422;-86
2022/02/02 00:06:33;;;;;;;1.73;1.63;;;23.40;54.20;;;;;;6177344;23;20375;-86
2022/02/02 00:09:03;;;;;;;1.77;1.10;;;23.40;54.20;;;;;;6227046;23;20370;-86
2022/02/02 00:12:07;;;;;;;4.20;0.97;;;23.40;54.20;;;;;;6235700;23;20468;-86
2022/02/02 00:16:57;;;;;;;1.50;0.90;;;23.40;54.30;;;;;;6237500;23;20382;-83
2022/02/02 00:19:46;;;;;;;2.57;0.80;;;23.40;54.20;;;;;;6238094;23;20370;-83
2022/02/02 00:22:19;;;;;;;2.60;1.03;;;23.40;54.20;;;;;;6238333;23;20385;-82
2022/02/02 00:25:03;;;;;;;1.50;1.00;;;23.40;54.20;;;;;;6237145;23;20367;-83
2022/02/02 00:27:35;;;;;;;2.67;1.63;;;23.40;54.20;;;;;;6213140;23;20408;-83
2022/02/02 00:30:03;;;;;;;2.17;1.10;;;23.30;54.20;;;;;;6237014;23;20375;-83
2022/02/02 00:32:47;;;;;;;1.63;1.00;;;23.30;54.20;;;;;;6236604;23;20935;-83
2022/02/02 00:35:20;;;;;;;2.17;1.00;;;23.40;54.30;;;;;;6236869;23;20370;-82
2022/02/02 00:37:48;;;;;;;2.83;0.90;;;23.40;54.30;;;;;;6237502;23;20394;-83
2022/02/02 00:40:14;;;;;;;1.53;1.00;;;23.40;54.30;;;;;;6236444;23;20381;-83
2022/02/02 00:42:47;;;;;;;1.30;0.90;;;23.40;54.30;;;;;;6236313;23;20389;-82
2022/02/02 00:45:20;;;;;;;1.17;0.83;;;23.30;54.20;;;;;;6238969;23;20805;-83
2022/02/02 00:47:51;;;;;;;2.03;0.90;;;23.40;54.30;;;;;;6238027;23;20410;-84
2022/02/02 00:50:24;;;;;;;1.30;0.80;;;23.40;54.30;;;;;;6238844;23;20425;-82
2022/02/02 00:52:52;;;;;;;2.00;1.00;;;23.40;54.30;;;;;;6187982;23;20433;-83
2022/02/02 00:55:19;;;;;;;2.17;1.17;;;23.30;54.20;;;;;;6237388;23;20426;-82
2022/02/02 00:57:47;;;;;;;1.37;0.80;;;23.40;54.30;;;;;;6236712;23;20405;-83
2022/02/02 01:00:22;;;;;;;1.37;0.90;;;23.30;54.20;;;;;;6238712;23;20386;-84
2022/02/02 01:02:49;;;;;;;2.63;0.97;;;23.30;54.20;;;;;;6238378;23;20366;-84
2022/02/02 01:05:16;;;;;;;1.27;0.80;;;23.30;54.20;;;;;;6239710;23;20378;-83
2022/02/02 01:08:16;;;;;;;2.40;0.90;;;23.30;54.20;;;;;;6235210;23;20385;-83
2022/02/02 01:10:54;;;;;;;2.13;0.80;;;23.30;54.20;;;;;;6235659;23;20371;-82
2022/02/02 01:18:34;;;;;;;1.70;1.00;;;23.30;54.20;;;;;;6244256;23;20390;-86
2022/02/02 01:21:16;;;;;;;1.23;0.90;;;23.30;54.20;;;;;;6233371;23;20354;-86
2022/02/02 01:29:11;;;;;;;1.60;1.00;;;23.30;54.30;;;;;;6261065;23;20392;-85
2022/02/02 01:31:36;;;;;;;1.53;1.00;;;23.30;54.30;;;;;;6236710;23;20927;-84
2022/02/02 01:34:05;;;;;;;1.30;0.93;;;23.30;54.30;;;;;;6263455;23;20369;-85
2022/02/02 01:36:38;;;;;;;1.20;1.00;;;23.30;54.20;;;;;;6241545;23;20381;-85
2022/02/02 01:39:05;;;;;;;1.43;0.90;;;23.30;54.20;;;;;;6268810;23;20349;-85
2022/02/02 01:41:38;;;;;;;1.70;1.00;;;23.30;54.20;;;;;;6268122;23;20373;-85
2022/02/02 01:44:14;;;;;;;1.47;0.90;;;23.30;54.20;;;;;;6241619;23;20377;-85
2022/02/02 01:46:41;;;;;;;1.20;0.77;;;23.30;54.20;;;;;;6242280;23;20409;-85
2022/02/02 01:52:26;;;;;;;3.20;1.10;;;23.30;54.20;;;;;;6268381;23;20493;-85
2022/02/02 01:55:06;;;;;;;1.40;0.90;;;23.30;54.20;;;;;;6242267;23;20445;-86
2022/02/02 01:58:03;;;;;;;3.00;1.00;;;23.30;54.30;;;;;;6241248;23;20419;-87
2022/02/02 02:00:30;;;;;;;1.97;1.17;;;23.30;54.30;;;;;;6268061;23;20361;-86
2022/02/02 02:02:59;;;;;;;1.03;0.80;;;23.30;54.30;;;;;;6242170;23;20378;-86
2022/02/02 02:05:25;;;;;;;1.00;0.80;;;23.30;54.30;;;;;;6241494;23;20836;-85
2022/02/02 02:07:54;;;;;;;1.77;0.90;;;23.30;54.30;;;;;;6240915;23;20468;-86
2022/02/02 02:10:24;;;;;;;1.60;0.87;;;23.30;54.30;;;;;;6241682;23;20453;-86
2022/02/02 02:12:56;;;;;;;1.13;0.80;;;23.30;54.30;;;;;;6215673;23;20421;-86
2022/02/02 02:15:27;;;;;;;1.00;0.80;;;23.30;54.20;;;;;;6240883;23;20432;-86
2022/02/02 02:17:55;;;;;;;1.20;0.90;;;23.30;54.20;;;;;;6241095;23;20453;-86
2022/02/02 02:20:23;;;;;;;2.03;0.90;;;23.30;54.20;;;;;;6240807;23;20377;-86
2022/02/02 02:22:49;;;;;;;1.20;0.73;;;23.30;54.20;;;;;;6240922;23;20382;-86
2022/02/02 02:25:26;;;;;;;2.10;0.83;;;23.30;54.20;;;;;;6241241;23;20389;-84
2022/02/02 02:28:00;;;;;;;3.53;1.10;;;23.30;54.20;;;;;;6236056;23;20729;-85
2022/02/02 02:30:46;;;;;;;1.80;1.07;;;23.30;54.20;;;;;;6236924;23;20358;-85
2022/02/02 02:33:48;;;;;;;1.93;0.97;;;23.30;54.20;;;;;;6236538;23;20361;-85
2022/02/02 02:55:54;;;;;;;1.50;0.73;;;23.20;54.20;;;;;;6205691;23;20403;-86
2022/02/02 03:31:27;;;;;;;1.03;0.80;;;23.20;54.20;;;;;;6203085;23;20418;-83
2022/02/02 04:07:07;;;;;;;1.87;1.07;;;23.20;54.20;;;;;;6239347;23;20458;-83
2022/02/02 04:09:38;;;;;;;2.60;0.80;;;23.20;54.20;;;;;;6238061;23;20358;-83
2022/02/02 04:58:54;;;;;;;1.00;0.60;;;23.20;54.20;;;;;;6179815;23;20391;-84
2022/02/02 05:06:54;;;;;;;1.57;1.00;;;23.20;54.80;;;;;;6179964;23;20378;-84
2022/02/02 05:12:37;;;;;;;0.97;0.70;;;23.20;54.20;;;;;;6186015;23;20427;-83
2022/02/02 05:53:15;;;;;;;1.00;0.77;;;23.20;54.20;;;;;;6114172;23;20381;-84
2022/02/02 05:56:01;;;;;;;2.07;0.93;;;23.20;54.10;;;;;;6114125;23;20382;-84
2022/02/02 05:58:46;;;;;;;1.87;0.97;;;23.20;54.10;;;;;;6092435;23;20417;-84
2022/02/02 06:01:16;;;;;;;1.50;1.00;;;23.20;54.10;;;;;;6111027;23;20405;-86
2022/02/02 06:03:56;;;;;;;1.70;0.87;;;23.20;54.10;;;;;;6109423;23;20381;-86
2022/02/02 06:06:24;;;;;;;2.07;0.83;;;23.20;54.10;;;;;;6192979;23;20838;-86
2022/02/02 06:08:52;;;;;;;1.73;0.90;;;23.20;54.10;;;;;;6234768;23;20385;-84
2022/02/02 06:11:21;;;;;;;1.10;0.80;;;23.20;54.00;;;;;;6235921;23;20448;-86
2022/02/02 06:14:39;;;;;;;1.53;0.90;;;23.20;54.00;;;;;;6236275;23;20401;-88
2022/02/02 06:17:34;;;;;;;1.53;1.00;;;23.30;54.10;;;;;;6111722;23;20417;-85
2022/02/02 06:20:03;;;;;;;1.80;1.13;;;23.20;54.00;;;;;;6132589;23;20515;-86
2022/02/02 06:23:11;;;;;;;;;;;;;;;;;;;;;
2022/02/02 06:26:16;;;;;;;1.53;0.80;;;23.30;54.10;;;;;;6234847;23;20411;-86
2022/02/02 06:28:57;;;;;;;1.80;1.00;;;23.30;54.10;;;;;;6228625;23;20405;-86
2022/02/02 06:31:29;;;;;;;2.70;1.43;;;23.30;54.10;;;;;;6229421;23;20487;-85
2022/02/02 06:34:12;;;;;;;1.20;0.80;;;23.30;54.10;;;;;;6229571;23;20378;-85
2022/02/02 06:36:46;;;;;;;2.03;1.00;;;23.30;54.10;;;;;;6229658;23;20441;-85
2022/02/02 06:39:41;;;;;;;1.70;0.80;;;23.30;54.10;;;;;;6230062;23;20386;-82
2022/02/02 06:42:10;;;;;;;1.73;1.07;;;23.30;54.10;;;;;;6234635;23;20381;-83
2022/02/02 06:44:59;;;;;;;2.07;0.97;;;23.30;54.00;;;;;;6234481;23;20387;-83
2022/02/02 06:47:51;;;;;;;1.47;0.90;;;23.30;54.10;;;;;;6227458;23;20385;-83
2022/02/02 06:50:27;;;;;;;1.87;0.90;;;23.30;54.00;;;;;;6234971;23;20406;-83
2022/02/02 06:53:50;;;;;;;1.37;0.80;;;23.30;54.10;;;;;;6234489;23;20436;-84
2022/02/02 07:05:43;;;;;;;;;;;;;;;;;;;;;
2022/02/02 07:16:36;;;;;;;1.97;1.20;;;23.30;54.10;;;;;;6120247;23;20374;-82
2022/02/02 07:19:26;;;;;;;4.40;0.87;;;23.30;54.10;;;;;;6117073;23;20390;-85
2022/02/02 07:28:00;;;;;;;1.23;0.77;;;23.40;54.20;;;;;;6206987;23;20409;-83
2022/02/02 07:30:30;;;;;;;1.13;0.77;;;23.40;54.20;;;;;;6219916;23;20440;-83
2022/02/02 07:33:30;;;;;;;1.00;0.70;;;23.40;54.10;;;;;;6235257;23;20418;-86
2022/02/02 07:39:25;;;;;;;2.30;0.90;;;23.40;54.20;;;;;;6178025;23;20362;-85
2022/02/02 07:42:02;;;;;;;1.10;0.73;;;23.40;54.20;;;;;;6238133;23;20365;-84
2022/02/02 07:45:03;;;;;;;2.33;0.90;;;23.40;54.20;;;;;;6239285;23;20358;-82
2022/02/02 07:47:34;;;;;;;2.23;0.90;;;23.40;54.10;;;;;;6145523;23;20486;-82
2022/02/02 07:50:08;;;;;;;2.60;1.03;;;23.40;54.10;;;;;;6118710;23;20448;-82
2022/02/02 07:55:34;;;;;;;;;;;;;;;;;;;;;
2022/02/02 07:58:02;;;;;;;3.43;1.43;;;23.40;54.10;;;;;;6143382;23;20384;-83
2022/02/02 08:00:41;;;;;;;1.30;1.00;;;23.40;54.10;;;;;;6118341;23;20385;-83
2022/02/02 08:03:15;;;;;;;2.63;1.00;;;23.40;54.00;;;;;;6118081;23;20400;-83
2022/02/02 08:09:10;;;;;;;1.70;1.00;;;23.40;54.00;;;;;;6056407;23;20391;-83
2022/02/02 08:12:02;;;;;;;2.13;1.20;;;23.40;54.00;;;;;;6057284;23;20414;-83
2022/02/02 08:14:41;;;;;;;1.57;1.10;;;23.40;54.00;;;;;;6057061;23;20383;-83
2022/02/02 08:17:17;;;;;;;2.27;1.00;;;23.40;54.00;;;;;;6056221;23;20380;-83
2022/02/02 08:19:58;;;;;;;2.80;1.30;;;23.40;54.00;;;;;;6032719;23;20418;-83
2022/02/02 08:22:41;;;;;;;;;;;;;;;;;;;;;
2022/02/02 08:25:18;;;;;;;2.73;1.30;;;23.40;54.00;;;;;;6173694;23;20371;-83
2022/02/02 08:27:54;;;;;;;1.97;1.30;;;23.40;54.00;;;;;;6147449;23;20380;-83
2022/02/02 08:30:28;;;;;;;3.87;1.50;;;23.50;54.10;;;;;;6126746;23;20380;-83
2022/02/02 08:33:19;;;;;;;1.77;1.10;;;23.50;54.10;;;;;;6126611;23;20420;-84
2022/02/02 08:36:06;;;;;;;1.50;1.23;;;23.50;54.60;;;;;;6159231;23;20376;-82
2022/02/02 09:24:08;;;;;;;1.90;1.50;;;23.50;54.10;;;;;;6216498;22;20479;-84
2022/02/02 10:08:36;;;;;;;4.30;1.43;;;23.40;54.20;;;;;;6058538;23;20479;-84
2022/02/02 10:18:13;;;;;;;3.97;1.47;;;23.50;54.40;;;;;;5949436;24;20416;-85
2022/02/02 10:24:17;;;;;;;4.60;1.27;;;23.50;54.30;;;;;;5972753;23;20479;-85
2022/02/02 10:33:44;;;;;;;2.70;1.37;;;23.50;54.20;;;;;;6003639;23;20504;-85
2022/02/02 10:40:38;;;;;;;5.20;2.13;;;23.50;54.20;;;;;;5945560;24;20379;-87
2022/02/02 10:47:43;;;;;;;3.10;2.03;;;23.50;54.20;;;;;;6057384;23;20386;-86
2022/02/02 10:50:53;;;;;;;3.33;2.13;;;23.50;54.20;;;;;;6050306;23;20862;-87
2022/02/02 11:12:59;;;;;;;3.30;2.17;;;23.50;54.20;;;;;;5863964;24;20452;-87
2022/02/02 11:20:07;;;;;;;;;;;;;;;;;;;;;
2022/02/02 11:53:18;;;;;;;4.27;2.40;;;23.60;54.40;;;;;;6261666;22;20440;-87
2022/02/02 11:56:30;;;;;;;;;;;;;;;;;;;;;
2022/02/02 12:57:37;;;;;;;;;;;;;;;;;;;;;
2022/02/02 13:24:51;;;;;;;;;;;;;;;;;;;;;
2022/02/02 13:38:43;;;;;;;4.27;1.43;;;23.60;54.20;;;;;;5995782;23;20371;-86
2022/02/02 14:31:23;;;;;;;3.63;1.67;;;23.60;54.10;;;;;;6238783;23;20381;-83
2022/02/02 14:33:46;;;;;;;1.87;1.10;;;23.60;54.10;;;;;;6234202;23;20382;-84
2022/02/02 14:36:16;;;;;;;3.00;1.40;;;23.60;54.10;;;;;;6210080;23;20446;-84
2022/02/02 14:39:02;;;;;;;2.33;2.13;;;23.70;54.10;;;;;;6217112;23;20359;-83
2022/02/02 14:41:36;;;;;;;3.00;1.93;;;23.70;54.10;;;;;;6218224;23;20373;-84
2022/02/02 14:44:12;;;;;;;3.00;1.60;;;23.70;54.00;;;;;;6218722;23;20410;-83
2022/02/02 14:46:48;;;;;;;3.47;1.90;;;23.70;54.00;;;;;;6244335;23;20350;-83
2022/02/02 14:49:39;;;;;;;1.87;1.20;;;23.80;54.00;;;;;;6217508;23;20378;-83
2022/02/02 15:09:51;;;;;;;4.90;1.53;;;23.90;54.10;;;;;;6248316;23;20373;-83
2022/02/02 15:28:48;;;;;;;1.97;1.17;;;24.00;54.20;;;;;;6238679;23;20370;-81
2022/02/02 15:31:17;;;;;;;2.17;1.33;;;24.10;54.20;;;;;;6239583;23;20357;-82
2022/02/02 15:33:47;;;;;;;4.40;1.63;;;24.10;54.20;;;;;;6238875;23;20860;-82
2022/02/02 15:38:43;;;;;;;2.00;1.30;;;24.10;54.20;;;;;;6239021;23;20371;-82
2022/02/02 15:41:39;;;;;;;1.50;1.00;;;24.20;54.20;;;;;;6237824;23;20380;-82
2022/02/02 15:55:16;;;;;;;2.20;1.40;;;24.30;54.20;;;;;;6239235;23;20430;-82
2022/02/02 16:03:12;;;;;;;1.80;1.17;;;24.30;54.20;;;;;;6238739;23;20374;-82
2022/02/02 16:05:46;;;;;;;2.77;1.50;;;24.30;54.20;;;;;;6212759;23;20393;-82
2022/02/02 16:08:20;;;;;;;1.20;1.07;;;24.30;54.10;;;;;;6189083;23;20448;-82
2022/02/02 16:13:29;;;;;;;2.17;1.30;;;24.30;54.20;;;;;;6239164;23;20417;-82
2022/02/02 16:16:00;;;;;;;1.73;1.07;;;24.40;54.20;;;;;;6213121;23;20468;-82
2022/02/02 16:18:38;;;;;;;1.70;1.17;;;24.40;54.20;;;;;;6212881;23;20358;-82
2022/02/02 16:35:51;;;;;;;2.30;1.20;;;24.40;54.20;;;;;;6239507;23;20379;-82
2022/02/02 16:38:21;;;;;;;2.00;1.00;;;24.40;54.30;;;;;;6239247;23;20363;-82
2022/02/02 16:40:50;;;;;;;2.13;0.97;;;24.40;54.30;;;;;;6238428;23;20461;-82
2022/02/02 16:43:18;;;;;;;1.53;1.07;;;24.50;54.30;;;;;;6213210;23;20389;-81
2022/02/02 16:45:53;;;;;;;1.63;1.10;;;24.50;54.30;;;;;;6213687;23;20386;-81
2022/02/02 16:48:21;;;;;;;1.83;1.20;;;24.50;54.30;;;;;;6238912;23;20367;-82
2022/02/02 16:50:50;;;;;;;3.33;0.90;;;24.50;54.30;;;;;;6213734;23;20382;-88
2022/02/02 17:29:21;;;;;;;1.90;1.13;;;24.70;54.90;;;;;;6247817;23;20362;-84
2022/02/02 17:31:10;;;;;;;1.30;0.90;;;24.70;54.30;;;;;;6237502;23;20438;-83
2022/02/02 17:33:54;;;;;;;1.20;0.80;;;24.70;54.30;;;;;;6211213;23;20464;-84
2022/02/02 17:36:38;;;;;;;1.57;1.20;;;24.80;54.40;;;;;;6212691;23;20382;-84
2022/02/02 17:39:10;;;;;;;1.47;1.00;;;24.70;54.30;;;;;;6238372;23;20370;-84
2022/02/02 17:59:58;;;;;;;1.30;0.90;;;24.80;54.40;;;;;;6237485;23;20429;-84
2022/02/02 18:12:13;;;;;;;1.40;0.90;;;24.80;54.40;;;;;;6247562;23;20428;-84
2022/02/02 18:20:34;;;;;;;1.93;1.00;;;24.90;54.50;;;;;;6175647;23;20403;-83
2022/02/02 18:23:23;;;;;;;1.00;0.80;;;24.90;54.50;;;;;;6175258;23;20388;-83
2022/02/02 18:26:01;;;;;;;1.10;0.80;;;24.90;54.50;;;;;;6190572;23;20398;-83
2022/02/02 18:28:54;;;;;;;1.60;0.97;;;24.90;54.50;;;;;;6210914;23;20393;-83
2022/02/02 18:31:44;;;;;;;5.23;1.23;;;24.90;54.50;;;;;;6210111;23;20397;-83
2022/02/02 18:34:21;;;;;;;2.43;1.00;;;24.90;54.50;;;;;;6237102;23;20346;-83
2022/02/02 18:37:07;;;;;;;2.37;1.00;;;24.90;54.50;;;;;;6237771;23;20354;-83
2022/02/02 18:47:35;;;;;;;1.67;0.90;;;25.00;54.20;;;;;;6236476;23;20374;-84
2022/02/02 18:50:18;;;;;;;1.30;0.97;;;25.00;54.20;;;;;;6209674;23;20398;-84
2022/02/02 18:56:45;;;;;;;0.97;0.70;;;25.00;54.10;;;;;;6125018;23;20390;-84
2022/02/02 19:01:52;;;;;;;1.30;0.80;;;25.00;54.00;;;;;;6112848;23;20378;-82
2022/02/02 20:01:53;;;;;;;2.20;1.20;;;24.50;54.20;;;;;;6144655;23;20397;-85
2022/02/02 20:12:49;;;;;;;1.30;0.90;;;24.50;54.20;;;;;;6149409;23;20579;-84
2022/02/02 20:15:18;;;;;;;2.10;1.20;;;24.50;54.20;;;;;;6144192;23;20409;-84
2022/02/02 20:17:45;;;;;;;2.13;1.00;;;24.50;54.20;;;;;;6120751;23;20899;-85
2022/02/02 20:20:18;;;;;;;1.97;1.10;;;24.40;54.10;;;;;;6145024;23;20384;-85
2022/02/02 20:22:44;;;;;;;2.17;1.20;;;24.50;54.20;;;;;;6144216;23;20356;-84
2022/02/02 20:25:13;;;;;;;1.70;1.10;;;24.50;54.20;;;;;;6144988;23;20400;-85
2022/02/02 20:27:40;;;;;;;1.10;0.70;;;24.50;54.20;;;;;;6146496;23;20389;-85
2022/02/02 20:30:12;;;;;;;3.43;1.30;;;24.40;54.10;;;;;;6146898;23;20453;-85
2022/02/02 20:32:38;;;;;;;1.37;0.90;;;24.40;54.20;;;;;;6146160;23;20500;-84
2022/02/02 20:35:53;;;;;;;1.30;1.20;;;24.40;54.20;;;;;;6146523;23;20377;-84
2022/02/02 20:38:34;;;;;;;1.73;1.07;;;24.40;54.20;;;;;;6159793;23;20465;-84
2022/02/02 20:44:43;;;;;;;1.67;0.90;;;24.30;54.20;;;;;;6117044;23;20789;-84
2022/02/02 21:14:45;;;;;;;1.63;0.90;;;24.20;54.40;;;;;;6183909;23;20393;-85
2022/02/02 21:17:19;;;;;;;2.13;1.13;;;24.20;54.40;;;;;;6212119;23;20366;-85
2022/02/02 21:22:48;;;;;;;1.30;0.83;;;24.20;54.40;;;;;;6238509;23;20362;-85
2022/02/02 21:25:46;;;;;;;1.80;0.90;;;24.20;54.50;;;;;;6211107;23;20394;-84
2022/02/02 21:28:33;;;;;;;1.20;0.80;;;24.20;54.40;;;;;;6237937;23;20369;-84
2022/02/02 21:31:25;;;;;;;1.47;0.80;;;24.20;54.40;;;;;;6238831;23;20366;-84
2022/02/02 21:33:52;;;;;;;1.47;0.90;;;24.20;54.50;;;;;;6237878;23;20382;-84
2022/02/02 21:36:22;;;;;;;1.40;0.83;;;24.20;54.50;;;;;;6210655;23;20374;-85
2022/02/02 21:41:51;;;;;;;1.83;0.83;;;24.20;54.50;;;;;;6247330;23;20371;-84
2022/02/02 21:44:22;;;;;;;9.03;1.57;;;24.20;54.50;;;;;;6210938;23;20374;-84
2022/02/02 21:46:50;;;;;;;1.80;0.80;;;24.20;54.50;;;;;;6211410;23;20370;-85
2022/02/02 21:49:22;;;;;;;2.33;1.10;;;24.20;54.50;;;;;;6210493;23;20432;-84
2022/02/02 21:52:19;;;;;;;1.27;0.80;;;24.20;54.50;;;;;;6211079;23;20409;-85
2022/02/02 21:54:47;;;;;;;1.60;1.10;;;24.20;54.50;;;;;;6217750;23;20389;-84
2022/02/02 21:57:16;;;;;;;1.60;1.00;;;24.20;54.50;;;;;;6211778;23;20447;-84
2022/02/02 21:59:45;;;;;;;1.60;0.90;;;24.20;54.50;;;;;;6212171;23;20477;-84
2022/02/02 22:02:10;;;;;;;2.20;0.83;;;24.20;54.50;;;;;;6211968;23;20401;-84
2022/02/02 22:04:37;;;;;;;1.83;1.00;;;24.20;54.50;;;;;;6238956;23;20370;-84
2022/02/02 22:07:04;;;;;;;1.37;0.80;;;24.20;54.50;;;;;;6211180;23;20397;-83
2022/02/02 22:09:34;;;;;;;1.73;0.87;;;24.20;54.50;;;;;;6211667;23;20412;-83
2022/02/02 22:12:05;;;;;;;1.30;1.10;;;24.20;54.50;;;;;;6186737;23;20422;-83
2022/02/02 22:14:36;;;;;;;0.90;0.80;;;24.20;54.50;;;;;;6187025;23;20390;-84
2022/02/02 22:17:04;;;;;;;0.90;0.80;;;24.20;54.50;;;;;;6161718;23;20405;-84
2022/02/02 22:19:31;;;;;;;1.37;0.90;;;24.20;54.50;;;;;;6187023;23;20398;-84
2022/02/02 22:22:07;;;;;;;;;;;;;;;;;;;;;
2022/02/02 22:24:40;;;;;;;1.13;0.80;;;24.20;54.50;;;;;;6237008;23;20386;-84
2022/02/02 22:27:06;;;;;;;1.30;1.10;;;24.20;54.50;;;;;;6211334;23;20409;-84
2022/02/02 22:29:32;;;;;;;2.10;0.87;;;24.20;54.50;;;;;;6236563;23;20382;-84
2022/02/02 22:34:52;;;;;;;1.37;1.00;;;24.20;54.50;;;;;;6234682;23;20157;-83
2022/02/02 22:37:18;;;;;;;0.93;0.70;;;24.20;54.50;;;;;;6210015;23;20394;-84
2022/02/02 22:39:48;;;;;;;1.30;0.80;;;24.10;54.50;;;;;;6237966;23;20425;-84
2022/02/02 22:42:40;;;;;;;1.20;0.80;;;24.10;54.50;;;;;;6237477;23;20142;-84
2022/02/02 22:45:13;;;;;;;2.73;1.00;;;24.20;54.50;;;;;;6237369;23;20362;-85
2022/02/02 22:47:43;;;;;;;1.37;0.97;;;24.10;54.50;;;;;;6235699;23;20419;-85
2022/02/02 22:50:09;;;;;;;1.30;0.80;;;24.10;54.50;;;;;;6235876;23;20389;-84
2022/02/02 22:52:46;;;;;;;1.00;0.73;;;24.10;54.50;;;;;;6210140;23;20751;-84
2022/02/02 22:55:16;;;;;;;1.10;0.83;;;24.10;54.50;;;;;;6209922;23;20378;-84
2022/02/02 22:57:42;;;;;;;1.63;0.80;;;24.10;54.40;;;;;;6210278;23;20390;-84
2022/02/02 23:00:15;;;;;;;1.30;0.90;;;24.10;54.40;;;;;;6236730;23;20369;-84
2022/02/02 23:05:09;;;;;;;1.97;0.80;;;24.10;54.40;;;;;;6236922;23;20378;-84
2022/02/02 23:07:35;;;;;;;1.93;1.00;;;24.10;54.40;;;;;;6211738;23;20386;-84
2022/02/02 23:10:02;;;;;;;1.63;0.73;;;24.10;54.40;;;;;;6236722;23;20374;-84
2022/02/02 23:12:28;;;;;;;2.27;0.90;;;24.10;54.50;;;;;;6210875;23;20185;-84
2022/02/02 23:14:59;;;;;;;1.70;0.80;;;24.10;54.40;;;;;;6236535;23;20394;-84
2022/02/02 23:17:33;;;;;;;2.33;1.40;;;24.10;54.40;;;;;;6211121;23;20370;-84
2022/02/02 23:19:59;;;;;;;1.17;0.80;;;24.10;54.30;;;;;;6236536;23;20394;-84
2022/02/02 23:22:29;;;;;;;2.43;0.80;;;24.10;54.40;;;;;;6237071;23;20466;-84
2022/02/02 23:24:59;;;;;;;1.63;1.10;;;24.10;54.40;;;;;;6236855;23;20389;-83
2022/02/02 23:27:25;;;;;;;1.30;0.80;;;24.00;54.40;;;;;;6237303;23;20462;-84
2022/02/02 23:29:55;;;;;;;1.80;0.97;;;24.10;54.50;;;;;;6210663;23;20391;-84
2022/02/02 23:32:23;;;;;;;1.47;0.90;;;24.10;54.50;;;;;;6210141;23;20175;-84
2022/02/02 23:34:49;;;;;;;1.53;1.00;;;24.00;54.40;;;;;;6237118;23;20373;-84
2022/02/02 23:37:15;;;;;;;1.10;0.90;;;24.10;54.50;;;;;;6211511;23;20473;-84
2022/02/02 23:39:52;;;;;;;2.77;0.87;;;24.10;54.50;;;;;;6210447;23;20224;-84
2022/02/02 23:42:23;;;;;;;1.80;1.00;;;24.10;54.50;;;;;;6236584;23;20750;-85
2022/02/02 23:44:50;;;;;;;1.30;1.00;;;24.10;54.50;;;;;;6236616;23;20374;-84
2022/02/02 23:47:29;;;;;;;1.50;1.07;;;24.10;54.50;;;;;;6236361;23;20374;-84
2022/02/02 23:50:06;;;;;;;1.10;0.80;;;24.10;54.50;;;;;;6236843;23;20449;-83
2022/02/02 23:52:40;;;;;;;1.13;0.80;;;24.10;54.40;;;;;;6210867;23;20405;-84
2022/02/02 23:55:10;;;;;;;1.53;1.00;;;24.10;54.40;;;;;;6187182;23;20358;-84
2022/02/02 23:57:53;;;;;;;1.50;1.20;;;24.00;54.40;;;;;;6211047;23;20386;-84
